sensor_id;sensor_type;location;lat;lon;timestamp;pressure;altitude;pressure_sealevel;temperature;humidity
15817;BME280;8009;50.070;8.232;2023-03-14T00:02:08;98071.19;;;10.94;81.78
15817;BME280;8009;50.070;8.232;2023-03-14T00:04:36;98077.56;;;10.77;81.74
15817;BME280;8009;50.070;8.232;2023-03-14T00:07:05;98095.88;;;10.57;83.06
15817;BME280;8009;50.070;8.232;2023-03-14T00:09:33;98093.78;;;10.85;82.18
15817;BME280;8009;50.070;8.232;2023-03-14T00:12:04;98087.03;;;10.81;82.04
15817;BME280;8009;50.070;8.232;2023-03-14T00:14:33;98083.66;;;10.87;82.58
15817;BME280;8009;50.070;8.232;2023-03-14T00:17:02;98079.06;;;10.79;82.27
15817;BME280;8009;50.070;8.232;2023-03-14T00:19:30;98092.22;;;10.74;82.70
15817;BME280;8009;50.070;8.232;2023-03-14T00:21:58;98093.06;;;10.74;83.07
15817;BME280;8009;50.070;8.232;2023-03-14T00:24:26;98090.63;;;10.55;82.55
15817;BME280;8009;50.070;8.232;2023-03-14T00:26:55;98083.63;;;10.79;81.89
15817;BME280;8009;50.070;8.232;2023-03-14T00:29:26;98088.00;;;10.71;82.29
15817;BME280;8009;50.070;8.232;2023-03-14T00:31:54;98074.78;;;10.60;81.95
15817;BME280;8009;50.070;8.232;2023-03-14T00:34:22;98075.34;;;10.72;82.14
15817;BME280;8009;50.070;8.232;2023-03-14T00:36:51;98071.50;;;10.83;81.24
15817;BME280;8009;50.070;8.232;2023-03-14T00:39:19;98052.09;;;10.79;81.39
15817;BME280;8009;50.070;8.232;2023-03-14T00:41:47;98044.50;;;10.83;81.26
15817;BME280;8009;50.070;8.232;2023-03-14T00:44:16;98039.53;;;10.54;82.20
15817;BME280;8009;50.070;8.232;2023-03-14T00:46:46;98027.94;;;10.69;81.80
15817;BME280;8009;50.070;8.232;2023-03-14T00:49:15;98028.81;;;10.78;81.56
15817;BME280;8009;50.070;8.232;2023-03-14T00:51:43;98026.72;;;10.56;82.53
15817;BME280;8009;50.070;8.232;2023-03-14T00:54:11;98021.69;;;10.61;81.22
15817;BME280;8009;50.070;8.232;2023-03-14T00:56:40;98025.09;;;10.79;79.36
15817;BME280;8009;50.070;8.232;2023-03-14T00:59:08;98029.16;;;10.83;79.84
15817;BME280;8009;50.070;8.232;2023-03-14T01:01:38;98030.34;;;10.81;80.35
15817;BME280;8009;50.070;8.232;2023-03-14T01:04:10;98038.97;;;10.92;79.94
15817;BME280;8009;50.070;8.232;2023-03-14T01:06:38;98042.31;;;10.86;79.60
15817;BME280;8009;50.070;8.232;2023-03-14T01:09:07;98037.75;;;10.87;79.74
15817;BME280;8009;50.070;8.232;2023-03-14T01:11:37;98037.75;;;10.79;79.47
15817;BME280;8009;50.070;8.232;2023-03-14T01:14:05;98046.97;;;10.60;81.16
15817;BME280;8009;50.070;8.232;2023-03-14T01:16:34;98046.31;;;10.58;80.70
15817;BME280;8009;50.070;8.232;2023-03-14T01:19:03;98043.78;;;10.64;80.19
15817;BME280;8009;50.070;8.232;2023-03-14T01:21:34;98028.22;;;10.50;80.97
15817;BME280;8009;50.070;8.232;2023-03-14T01:24:05;98036.03;;;10.69;80.82
15817;BME280;8009;50.070;8.232;2023-03-14T01:26:34;98038.19;;;10.49;81.36
15817;BME280;8009;50.070;8.232;2023-03-14T01:29:03;98026.56;;;10.57;81.15
15817;BME280;8009;50.070;8.232;2023-03-14T01:31:31;98022.88;;;10.74;79.73
15817;BME280;8009;50.070;8.232;2023-03-14T01:33:59;98028.91;;;10.60;79.42
15817;BME280;8009;50.070;8.232;2023-03-14T01:36:28;98020.03;;;10.76;78.91
15817;BME280;8009;50.070;8.232;2023-03-14T01:38:59;98012.91;;;10.59;79.71
15817;BME280;8009;50.070;8.232;2023-03-14T01:41:28;98005.34;;;10.70;79.42
15817;BME280;8009;50.070;8.232;2023-03-14T01:43:56;98004.28;;;10.47;79.85
15817;BME280;8009;50.070;8.232;2023-03-14T01:46:29;97989.84;;;10.72;78.82
15817;BME280;8009;50.070;8.232;2023-03-14T01:49:04;97998.06;;;10.71;78.82
15817;BME280;8009;50.070;8.232;2023-03-14T01:51:37;97994.72;;;10.61;79.66
15817;BME280;8009;50.070;8.232;2023-03-14T01:54:14;97993.19;;;10.66;79.64
15817;BME280;8009;50.070;8.232;2023-03-14T01:56:46;97995.19;;;10.56;79.39
15817;BME280;8009;50.070;8.232;2023-03-14T01:59:17;97984.59;;;10.71;79.19
15817;BME280;8009;50.070;8.232;2023-03-14T02:01:47;97972.75;;;10.64;79.50
15817;BME280;8009;50.070;8.232;2023-03-14T02:04:18;97960.28;;;10.71;78.89
15817;BME280;8009;50.070;8.232;2023-03-14T02:06:50;97960.66;;;10.92;77.61
15817;BME280;8009;50.070;8.232;2023-03-14T02:09:22;97940.38;;;10.56;79.29
15817;BME280;8009;50.070;8.232;2023-03-14T02:11:51;97947.78;;;10.45;79.91
15817;BME280;8009;50.070;8.232;2023-03-14T02:14:27;97930.91;;;10.52;79.99
15817;BME280;8009;50.070;8.232;2023-03-14T02:16:56;97939.91;;;10.77;78.99
15817;BME280;8009;50.070;8.232;2023-03-14T02:19:35;97939.38;;;10.97;78.10
15817;BME280;8009;50.070;8.232;2023-03-14T02:22:08;97940.72;;;11.10;77.30
15817;BME280;8009;50.070;8.232;2023-03-14T02:24:44;97922.03;;;10.92;78.33
15817;BME280;8009;50.070;8.232;2023-03-14T02:27:18;97925.03;;;11.05;77.11
15817;BME280;8009;50.070;8.232;2023-03-14T02:29:50;97915.44;;;10.78;77.77
15817;BME280;8009;50.070;8.232;2023-03-14T02:32:21;97912.06;;;10.84;78.70
15817;BME280;8009;50.070;8.232;2023-03-14T02:34:53;97913.75;;;10.93;78.55
15817;BME280;8009;50.070;8.232;2023-03-14T02:37:26;97911.88;;;10.69;78.81
15817;BME280;8009;50.070;8.232;2023-03-14T02:39:56;97909.16;;;11.02;78.17
15817;BME280;8009;50.070;8.232;2023-03-14T02:42:27;97918.81;;;10.88;78.65
15817;BME280;8009;50.070;8.232;2023-03-14T02:48:11;97920.94;;;10.44;79.32
15817;BME280;8009;50.070;8.232;2023-03-14T02:50:42;97931.81;;;10.68;78.87
15817;BME280;8009;50.070;8.232;2023-03-14T02:53:13;97928.91;;;10.94;78.82
15817;BME280;8009;50.070;8.232;2023-03-14T02:55:44;97926.72;;;11.31;76.17
15817;BME280;8009;50.070;8.232;2023-03-14T02:58:16;97921.47;;;11.37;76.15
15817;BME280;8009;50.070;8.232;2023-03-14T03:00:45;97924.69;;;11.41;75.75
15817;BME280;8009;50.070;8.232;2023-03-14T03:03:13;97923.19;;;11.22;77.05
15817;BME280;8009;50.070;8.232;2023-03-14T03:05:42;97923.88;;;11.08;78.67
15817;BME280;8009;50.070;8.232;2023-03-14T03:08:11;97942.59;;;10.85;78.92
15817;BME280;8009;50.070;8.232;2023-03-14T03:10:40;97932.13;;;10.73;79.62
15817;BME280;8009;50.070;8.232;2023-03-14T03:13:08;97932.97;;;10.74;78.75
15817;BME280;8009;50.070;8.232;2023-03-14T03:15:39;97936.00;;;11.20;76.89
15817;BME280;8009;50.070;8.232;2023-03-14T03:18:08;97933.97;;;11.06;77.79
15817;BME280;8009;50.070;8.232;2023-03-14T03:20:36;97917.13;;;10.95;78.42
15817;BME280;8009;50.070;8.232;2023-03-14T03:23:05;97914.41;;;11.20;76.50
15817;BME280;8009;50.070;8.232;2023-03-14T03:25:33;97922.19;;;10.82;79.03
15817;BME280;8009;50.070;8.232;2023-03-14T03:28:01;97924.38;;;10.79;78.94
15817;BME280;8009;50.070;8.232;2023-03-14T03:30:33;97914.25;;;10.89;78.14
15817;BME280;8009;50.070;8.232;2023-03-14T03:33:04;97910.34;;;10.75;78.01
15817;BME280;8009;50.070;8.232;2023-03-14T03:35:34;97918.91;;;10.38;79.54
15817;BME280;8009;50.070;8.232;2023-03-14T03:38:02;97911.88;;;10.78;78.53
15817;BME280;8009;50.070;8.232;2023-03-14T03:40:31;97911.06;;;10.77;79.04
15817;BME280;8009;50.070;8.232;2023-03-14T03:42:59;97913.06;;;11.00;77.77
15817;BME280;8009;50.070;8.232;2023-03-14T03:45:29;97898.38;;;11.02;77.88
15817;BME280;8009;50.070;8.232;2023-03-14T03:47:57;97882.00;;;10.71;79.24
15817;BME280;8009;50.070;8.232;2023-03-14T03:50:28;97883.38;;;10.75;79.10
15817;BME280;8009;50.070;8.232;2023-03-14T03:52:56;97879.81;;;10.58;79.06
15817;BME280;8009;50.070;8.232;2023-03-14T03:55:25;97864.81;;;10.56;79.17
15817;BME280;8009;50.070;8.232;2023-03-14T03:57:54;97861.09;;;10.40;80.11
15817;BME280;8009;50.070;8.232;2023-03-14T04:00:22;97854.53;;;10.84;78.70
15817;BME280;8009;50.070;8.232;2023-03-14T04:02:50;97867.50;;;10.72;78.93
15817;BME280;8009;50.070;8.232;2023-03-14T04:05:19;97864.66;;;10.57;79.41
15817;BME280;8009;50.070;8.232;2023-03-14T04:07:50;97867.34;;;10.57;80.27
15817;BME280;8009;50.070;8.232;2023-03-14T04:10:18;97857.91;;;10.78;78.72
15817;BME280;8009;50.070;8.232;2023-03-14T04:12:46;97858.56;;;10.88;77.73
15817;BME280;8009;50.070;8.232;2023-03-14T04:15:15;97844.59;;;10.76;79.34
15817;BME280;8009;50.070;8.232;2023-03-14T04:17:43;97860.09;;;10.49;80.31
15817;BME280;8009;50.070;8.232;2023-03-14T04:20:12;97861.13;;;10.73;78.65
15817;BME280;8009;50.070;8.232;2023-03-14T04:22:41;97860.75;;;11.01;78.01
15817;BME280;8009;50.070;8.232;2023-03-14T04:25:11;97867.84;;;10.93;77.79
15817;BME280;8009;50.070;8.232;2023-03-14T04:27:42;97859.56;;;10.95;78.02
15817;BME280;8009;50.070;8.232;2023-03-14T04:30:11;97858.69;;;11.03;78.11
15817;BME280;8009;50.070;8.232;2023-03-14T04:32:39;97850.31;;;10.65;79.49
15817;BME280;8009;50.070;8.232;2023-03-14T04:35:08;97838.25;;;10.18;80.50
15817;BME280;8009;50.070;8.232;2023-03-14T04:37:36;97839.69;;;10.47;79.91
15817;BME280;8009;50.070;8.232;2023-03-14T04:40:07;97818.78;;;10.57;79.32
15817;BME280;8009;50.070;8.232;2023-03-14T04:42:38;97821.63;;;10.72;77.65
15817;BME280;8009;50.070;8.232;2023-03-14T04:45:07;97815.75;;;10.68;77.59
15817;BME280;8009;50.070;8.232;2023-03-14T04:47:37;97816.56;;;10.44;78.58
15817;BME280;8009;50.070;8.232;2023-03-14T04:50:06;97816.41;;;10.54;77.95
15817;BME280;8009;50.070;8.232;2023-03-14T04:52:35;97807.63;;;10.77;76.17
15817;BME280;8009;50.070;8.232;2023-03-14T04:55:04;97812.19;;;10.76;77.06
15817;BME280;8009;50.070;8.232;2023-03-14T04:57:32;97805.94;;;10.67;77.94
15817;BME280;8009;50.070;8.232;2023-03-14T05:00:04;97803.25;;;10.67;76.79
15817;BME280;8009;50.070;8.232;2023-03-14T05:02:34;97808.97;;;10.81;75.71
15817;BME280;8009;50.070;8.232;2023-03-14T05:05:03;97802.91;;;10.70;76.15
15817;BME280;8009;50.070;8.232;2023-03-14T05:07:32;97807.44;;;10.78;75.99
15817;BME280;8009;50.070;8.232;2023-03-14T05:10:00;97810.50;;;10.59;76.30
15817;BME280;8009;50.070;8.232;2023-03-14T05:12:29;97811.31;;;10.76;75.51
15817;BME280;8009;50.070;8.232;2023-03-14T05:14:57;97824.84;;;10.84;76.04
15817;BME280;8009;50.070;8.232;2023-03-14T05:17:28;97813.72;;;10.62;76.43
15817;BME280;8009;50.070;8.232;2023-03-14T05:19:56;97807.66;;;10.68;75.90
15817;BME280;8009;50.070;8.232;2023-03-14T05:22:25;97811.69;;;10.72;76.29
15817;BME280;8009;50.070;8.232;2023-03-14T05:24:53;97813.91;;;10.61;76.17
15817;BME280;8009;50.070;8.232;2023-03-14T05:27:23;97817.91;;;10.48;76.47
15817;BME280;8009;50.070;8.232;2023-03-14T05:29:52;97821.97;;;10.53;77.01
15817;BME280;8009;50.070;8.232;2023-03-14T05:32:20;97818.78;;;10.57;76.97
15817;BME280;8009;50.070;8.232;2023-03-14T05:34:51;97816.22;;;10.56;76.88
15817;BME280;8009;50.070;8.232;2023-03-14T05:37:23;97821.13;;;10.44;77.22
15817;BME280;8009;50.070;8.232;2023-03-14T05:39:52;97824.50;;;10.62;76.62
15817;BME280;8009;50.070;8.232;2023-03-14T05:42:20;97815.41;;;10.47;77.05
15817;BME280;8009;50.070;8.232;2023-03-14T05:44:48;97815.03;;;10.34;76.87
15817;BME280;8009;50.070;8.232;2023-03-14T05:47:17;97807.94;;;10.24;77.38
15817;BME280;8009;50.070;8.232;2023-03-14T05:49:45;97807.47;;;10.37;76.61
15817;BME280;8009;50.070;8.232;2023-03-14T05:52:17;97798.72;;;10.27;77.84
15817;BME280;8009;50.070;8.232;2023-03-14T05:54:45;97796.13;;;10.09;77.23
15817;BME280;8009;50.070;8.232;2023-03-14T05:57:13;97798.53;;;10.45;75.99
15817;BME280;8009;50.070;8.232;2023-03-14T05:59:42;97796.31;;;10.24;77.00
15817;BME280;8009;50.070;8.232;2023-03-14T06:02:10;97786.25;;;10.34;77.05
15817;BME280;8009;50.070;8.232;2023-03-14T06:04:38;97778.28;;;10.08;77.46
15817;BME280;8009;50.070;8.232;2023-03-14T06:07:07;97782.00;;;10.32;76.70
15817;BME280;8009;50.070;8.232;2023-03-14T06:09:38;97774.88;;;10.14;77.90
15817;BME280;8009;50.070;8.232;2023-03-14T06:12:07;97774.56;;;10.09;77.72
15817;BME280;8009;50.070;8.232;2023-03-14T06:14:35;97765.13;;;10.21;77.87
15817;BME280;8009;50.070;8.232;2023-03-14T06:17:04;97762.63;;;10.36;77.18
15817;BME280;8009;50.070;8.232;2023-03-14T06:19:32;97768.81;;;10.04;77.62
15817;BME280;8009;50.070;8.232;2023-03-14T06:22:00;97766.13;;;9.96;78.96
15817;BME280;8009;50.070;8.232;2023-03-14T06:24:29;97769.31;;;9.99;78.80
15817;BME280;8009;50.070;8.232;2023-03-14T06:27:00;97767.31;;;10.18;77.86
15817;BME280;8009;50.070;8.232;2023-03-14T06:29:29;97765.50;;;10.35;78.02
15817;BME280;8009;50.070;8.232;2023-03-14T06:31:58;97760.03;;;10.02;78.37
15817;BME280;8009;50.070;8.232;2023-03-14T06:34:26;97763.06;;;9.91;78.77
15817;BME280;8009;50.070;8.232;2023-03-14T06:36:54;97766.28;;;9.94;78.65
15817;BME280;8009;50.070;8.232;2023-03-14T06:39:23;97768.97;;;10.11;77.52
15817;BME280;8009;50.070;8.232;2023-03-14T06:41:51;97777.25;;;10.17;76.96
15817;BME280;8009;50.070;8.232;2023-03-14T06:44:22;97767.69;;;10.31;77.20
15817;BME280;8009;50.070;8.232;2023-03-14T06:46:53;97769.22;;;10.42;76.86
15817;BME280;8009;50.070;8.232;2023-03-14T06:49:21;97768.31;;;10.17;77.22
15817;BME280;8009;50.070;8.232;2023-03-14T06:51:49;97761.47;;;10.31;76.75
15817;BME280;8009;50.070;8.232;2023-03-14T06:54:17;97761.44;;;10.39;77.09
15817;BME280;8009;50.070;8.232;2023-03-14T06:56:46;97762.44;;;10.30;77.01
15817;BME280;8009;50.070;8.232;2023-03-14T06:59:14;97767.66;;;10.23;77.34
15817;BME280;8009;50.070;8.232;2023-03-14T07:01:47;97764.31;;;10.45;76.87
15817;BME280;8009;50.070;8.232;2023-03-14T07:04:16;97758.25;;;10.43;76.63
15817;BME280;8009;50.070;8.232;2023-03-14T07:06:45;97759.91;;;10.36;77.48
15817;BME280;8009;50.070;8.232;2023-03-14T07:09:14;97765.81;;;10.15;77.35
15817;BME280;8009;50.070;8.232;2023-03-14T07:11:42;97759.09;;;10.28;77.51
15817;BME280;8009;50.070;8.232;2023-03-14T07:14:10;97767.00;;;10.29;77.15
15817;BME280;8009;50.070;8.232;2023-03-14T07:16:39;97762.09;;;10.41;77.68
15817;BME280;8009;50.070;8.232;2023-03-14T07:19:10;97766.84;;;10.47;76.70
15817;BME280;8009;50.070;8.232;2023-03-14T07:21:38;97770.53;;;10.38;77.22
15817;BME280;8009;50.070;8.232;2023-03-14T07:24:07;97762.94;;;10.66;76.59
15817;BME280;8009;50.070;8.232;2023-03-14T07:26:35;97774.84;;;10.96;75.07
15817;BME280;8009;50.070;8.232;2023-03-14T07:29:04;97773.41;;;10.61;75.49
15817;BME280;8009;50.070;8.232;2023-03-14T07:31:32;97778.44;;;10.80;75.58
15817;BME280;8009;50.070;8.232;2023-03-14T07:34:00;97783.34;;;10.77;75.66
15817;BME280;8009;50.070;8.232;2023-03-14T07:36:31;97774.91;;;10.71;75.82
15817;BME280;8009;50.070;8.232;2023-03-14T07:39:00;97782.44;;;11.01;74.94
15817;BME280;8009;50.070;8.232;2023-03-14T07:41:29;97780.78;;;10.83;75.01
15817;BME280;8009;50.070;8.232;2023-03-14T07:43:57;97780.56;;;11.01;75.01
15817;BME280;8009;50.070;8.232;2023-03-14T07:46:26;97786.16;;;10.83;75.17
15817;BME280;8009;50.070;8.232;2023-03-14T07:48:54;97788.09;;;10.58;76.79
15817;BME280;8009;50.070;8.232;2023-03-14T07:51:22;97790.28;;;10.55;76.61
15817;BME280;8009;50.070;8.232;2023-03-14T07:53:53;97788.91;;;10.67;76.35
15817;BME280;8009;50.070;8.232;2023-03-14T07:56:22;97789.84;;;10.98;75.49
15817;BME280;8009;50.070;8.232;2023-03-14T07:58:50;97798.31;;;10.87;75.85
15817;BME280;8009;50.070;8.232;2023-03-14T08:01:18;97790.72;;;10.91;75.85
15817;BME280;8009;50.070;8.232;2023-03-14T08:03:47;97792.56;;;11.07;74.85
15817;BME280;8009;50.070;8.232;2023-03-14T08:06:15;97792.66;;;10.49;77.46
15817;BME280;8009;50.070;8.232;2023-03-14T08:08:43;97791.47;;;10.68;76.61
15817;BME280;8009;50.070;8.232;2023-03-14T08:11:14;97793.63;;;10.73;76.16
15817;BME280;8009;50.070;8.232;2023-03-14T08:13:43;97800.66;;;11.07;74.83
15817;BME280;8009;50.070;8.232;2023-03-14T08:16:15;97797.47;;;11.03;74.63
15817;BME280;8009;50.070;8.232;2023-03-14T08:18:43;97793.88;;;11.03;75.30
15817;BME280;8009;50.070;8.232;2023-03-14T08:21:12;97784.94;;;11.02;75.06
15817;BME280;8009;50.070;8.232;2023-03-14T08:23:41;97792.22;;;11.02;74.64
15817;BME280;8009;50.070;8.232;2023-03-14T08:26:09;97794.75;;;11.51;74.84
15817;BME280;8009;50.070;8.232;2023-03-14T08:28:40;97796.00;;;11.71;73.49
15817;BME280;8009;50.070;8.232;2023-03-14T08:31:08;97802.75;;;11.36;74.15
15817;BME280;8009;50.070;8.232;2023-03-14T08:33:37;97790.22;;;11.43;75.00
15817;BME280;8009;50.070;8.232;2023-03-14T08:36:06;97789.63;;;11.64;73.62
15817;BME280;8009;50.070;8.232;2023-03-14T08:38:34;97792.69;;;11.61;74.26
15817;BME280;8009;50.070;8.232;2023-03-14T08:41:03;97786.53;;;11.36;74.89
15817;BME280;8009;50.070;8.232;2023-03-14T08:43:32;97790.16;;;11.59;74.06
15817;BME280;8009;50.070;8.232;2023-03-14T08:46:03;97789.28;;;11.28;75.06
15817;BME280;8009;50.070;8.232;2023-03-14T08:48:32;97791.19;;;11.11;74.90
15817;BME280;8009;50.070;8.232;2023-03-14T08:51:04;97790.97;;;11.20;75.19
15817;BME280;8009;50.070;8.232;2023-03-14T08:53:33;97784.75;;;11.20;73.25
15817;BME280;8009;50.070;8.232;2023-03-14T08:56:01;97781.94;;;11.44;74.61
15817;BME280;8009;50.070;8.232;2023-03-14T08:58:31;97795.22;;;11.15;74.28
15817;BME280;8009;50.070;8.232;2023-03-14T09:01:03;97786.78;;;11.10;75.29
15817;BME280;8009;50.070;8.232;2023-03-14T09:03:33;97798.28;;;11.12;76.01
15817;BME280;8009;50.070;8.232;2023-03-14T09:06:02;97791.19;;;11.03;76.02
15817;BME280;8009;50.070;8.232;2023-03-14T09:08:32;97796.72;;;11.17;75.96
15817;BME280;8009;50.070;8.232;2023-03-14T09:11:01;97795.22;;;11.15;75.47
15817;BME280;8009;50.070;8.232;2023-03-14T09:13:29;97805.66;;;11.18;75.63
15817;BME280;8009;50.070;8.232;2023-03-14T09:15:57;97797.13;;;10.90;76.54
15817;BME280;8009;50.070;8.232;2023-03-14T09:18:28;97794.63;;;10.64;77.94
15817;BME280;8009;50.070;8.232;2023-03-14T09:20:57;97797.31;;;10.88;77.04
15817;BME280;8009;50.070;8.232;2023-03-14T09:23:25;97805.06;;;10.83;77.44
15817;BME280;8009;50.070;8.232;2023-03-14T09:25:55;97801.34;;;11.01;77.06
15817;BME280;8009;50.070;8.232;2023-03-14T09:28:24;97809.25;;;11.18;75.50
15817;BME280;8009;50.070;8.232;2023-03-14T09:30:54;97803.97;;;11.25;75.53
15817;BME280;8009;50.070;8.232;2023-03-14T09:33:27;97805.72;;;11.57;74.33
15817;BME280;8009;50.070;8.232;2023-03-14T09:35:58;97804.88;;;11.57;73.88
15817;BME280;8009;50.070;8.232;2023-03-14T09:38:27;97820.28;;;11.40;74.58
15817;BME280;8009;50.070;8.232;2023-03-14T09:40:58;97818.22;;;10.94;75.57
15817;BME280;8009;50.070;8.232;2023-03-14T09:43:30;97811.31;;;11.00;75.98
15817;BME280;8009;50.070;8.232;2023-03-14T09:46:01;97815.78;;;11.24;75.46
15817;BME280;8009;50.070;8.232;2023-03-14T09:48:33;97812.09;;;11.17;75.31
15817;BME280;8009;50.070;8.232;2023-03-14T09:51:05;97813.47;;;11.05;75.81
15817;BME280;8009;50.070;8.232;2023-03-14T09:53:39;97815.94;;;11.70;73.62
15817;BME280;8009;50.070;8.232;2023-03-14T09:56:12;97813.59;;;11.67;73.42
15817;BME280;8009;50.070;8.232;2023-03-14T09:58:43;97814.22;;;11.77;73.40
15817;BME280;8009;50.070;8.232;2023-03-14T10:01:15;97805.13;;;11.70;73.65
15817;BME280;8009;50.070;8.232;2023-03-14T10:03:47;97806.41;;;11.51;74.18
15817;BME280;8009;50.070;8.232;2023-03-14T10:06:15;97798.25;;;11.59;74.56
15817;BME280;8009;50.070;8.232;2023-03-14T10:08:44;97796.72;;;11.65;73.23
15817;BME280;8009;50.070;8.232;2023-03-14T10:11:15;97793.50;;;11.30;75.27
15817;BME280;8009;50.070;8.232;2023-03-14T10:13:49;97794.28;;;11.39;75.23
15817;BME280;8009;50.070;8.232;2023-03-14T10:16:28;97791.38;;;11.57;74.89
15817;BME280;8009;50.070;8.232;2023-03-14T10:19:05;97785.06;;;11.64;74.75
15817;BME280;8009;50.070;8.232;2023-03-14T10:21:38;97784.50;;;11.38;76.00
15817;BME280;8009;50.070;8.232;2023-03-14T10:24:10;97781.09;;;11.75;74.95
15817;BME280;8009;50.070;8.232;2023-03-14T10:26:39;97789.00;;;11.54;76.41
15817;BME280;8009;50.070;8.232;2023-03-14T10:29:10;97792.78;;;11.76;75.85
15817;BME280;8009;50.070;8.232;2023-03-14T10:31:48;97794.91;;;11.57;76.22
15817;BME280;8009;50.070;8.232;2023-03-14T10:34:24;97795.88;;;11.17;77.55
15817;BME280;8009;50.070;8.232;2023-03-14T10:36:54;97795.66;;;11.35;76.72
15817;BME280;8009;50.070;8.232;2023-03-14T10:39:47;97790.16;;;11.20;77.31
15817;BME280;8009;50.070;8.232;2023-03-14T10:42:20;97800.59;;;11.23;76.80
15817;BME280;8009;50.070;8.232;2023-03-14T10:44:55;97796.53;;;11.27;77.19
15817;BME280;8009;50.070;8.232;2023-03-14T10:47:26;97800.22;;;11.34;78.34
15817;BME280;8009;50.070;8.232;2023-03-14T10:50:22;97801.41;;;11.32;78.33
15817;BME280;8009;50.070;8.232;2023-03-14T10:52:52;97807.63;;;11.40;78.81
15817;BME280;8009;50.070;8.232;2023-03-14T10:55:23;97801.06;;;11.35;78.50
15817;BME280;8009;50.070;8.232;2023-03-14T10:57:52;97802.50;;;11.06;79.69
15817;BME280;8009;50.070;8.232;2023-03-14T11:00:22;97810.09;;;11.03;80.01
15817;BME280;8009;50.070;8.232;2023-03-14T11:03:04;97810.00;;;11.35;80.51
15817;BME280;8009;50.070;8.232;2023-03-14T11:05:44;97803.25;;;11.39;80.32
15817;BME280;8009;50.070;8.232;2023-03-14T11:08:18;97809.00;;;11.36;79.98
15817;BME280;8009;50.070;8.232;2023-03-14T11:10:52;97807.31;;;11.35;77.43
15817;BME280;8009;50.070;8.232;2023-03-14T11:13:25;97798.34;;;11.43;75.88
15817;BME280;8009;50.070;8.232;2023-03-14T11:16:02;97802.69;;;11.52;76.18
15817;BME280;8009;50.070;8.232;2023-03-14T11:18:54;97809.94;;;11.52;76.20
15817;BME280;8009;50.070;8.232;2023-03-14T11:21:35;97800.16;;;11.82;76.27
15817;BME280;8009;50.070;8.232;2023-03-14T11:24:18;97809.78;;;11.92;73.73
15817;BME280;8009;50.070;8.232;2023-03-14T11:26:55;97805.19;;;12.24;74.64
15817;BME280;8009;50.070;8.232;2023-03-14T11:29:31;97817.75;;;11.86;76.23
15817;BME280;8009;50.070;8.232;2023-03-14T11:32:11;97822.56;;;11.59;75.13
15817;BME280;8009;50.070;8.232;2023-03-14T11:34:43;97822.88;;;11.73;75.55
15817;BME280;8009;50.070;8.232;2023-03-14T11:37:22;97829.66;;;11.68;77.31
15817;BME280;8009;50.070;8.232;2023-03-14T11:39:57;97841.28;;;11.30;80.97
15817;BME280;8009;50.070;8.232;2023-03-14T11:42:28;97830.50;;;11.13;80.91
15817;BME280;8009;50.070;8.232;2023-03-14T11:44:58;97845.75;;;11.54;79.53
15817;BME280;8009;50.070;8.232;2023-03-14T11:47:31;97863.50;;;11.56;77.55
15817;BME280;8009;50.070;8.232;2023-03-14T11:50:09;97868.19;;;11.07;77.86
15817;BME280;8009;50.070;8.232;2023-03-14T11:52:50;97902.56;;;10.31;75.83
15817;BME280;8009;50.070;8.232;2023-03-14T11:55:24;97923.78;;;10.26;77.43
15817;BME280;8009;50.070;8.232;2023-03-14T11:57:57;97943.97;;;9.80;76.73
15817;BME280;8009;50.070;8.232;2023-03-14T12:00:26;97967.97;;;9.65;78.39
15817;BME280;8009;50.070;8.232;2023-03-14T12:02:58;97975.78;;;9.50;77.96
15817;BME280;8009;50.070;8.232;2023-03-14T12:05:46;97998.47;;;9.99;78.24
15817;BME280;8009;50.070;8.232;2023-03-14T12:11:38;98022.88;;;10.24;76.12
15817;BME280;8009;50.070;8.232;2023-03-14T12:14:19;98028.41;;;10.57;75.97
15817;BME280;8009;50.070;8.232;2023-03-14T12:16:49;98052.53;;;10.50;72.32
15817;BME280;8009;50.070;8.232;2023-03-14T12:19:37;98084.03;;;10.15;73.82
15817;BME280;8009;50.070;8.232;2023-03-14T12:22:23;98069.84;;;10.39;73.68
15817;BME280;8009;50.070;8.232;2023-03-14T12:24:56;98068.28;;;10.79;71.12
15817;BME280;8009;50.070;8.232;2023-03-14T12:27:49;98091.84;;;11.11;66.55
15817;BME280;8009;50.070;8.232;2023-03-14T12:30:32;98091.03;;;10.68;69.26
15817;BME280;8009;50.070;8.232;2023-03-14T12:33:29;98089.00;;;10.70;67.92
15817;BME280;8009;50.070;8.232;2023-03-14T12:36:21;98087.81;;;10.65;69.00
15817;BME280;8009;50.070;8.232;2023-03-14T12:39:15;98098.63;;;10.65;69.97
15817;BME280;8009;50.070;8.232;2023-03-14T12:41:52;98129.91;;;10.84;69.30
15817;BME280;8009;50.070;8.232;2023-03-14T12:44:49;98132.56;;;10.41;69.64
15817;BME280;8009;50.070;8.232;2023-03-14T12:47:43;98138.75;;;10.08;68.01
15817;BME280;8009;50.070;8.232;2023-03-14T12:50:19;98173.81;;;10.60;67.07
15817;BME280;8009;50.070;8.232;2023-03-14T12:53:02;98182.88;;;10.51;67.83
15817;BME280;8009;50.070;8.232;2023-03-14T12:55:38;98185.81;;;10.13;68.73
15817;BME280;8009;50.070;8.232;2023-03-14T12:58:17;98184.44;;;10.27;68.82
15817;BME280;8009;50.070;8.232;2023-03-14T13:00:55;98193.34;;;10.10;68.90
15817;BME280;8009;50.070;8.232;2023-03-14T13:03:26;98211.03;;;9.86;69.35
15817;BME280;8009;50.070;8.232;2023-03-14T13:06:05;98211.31;;;10.19;68.29
15817;BME280;8009;50.070;8.232;2023-03-14T13:08:37;98219.13;;;10.48;63.84
15817;BME280;8009;50.070;8.232;2023-03-14T13:11:08;98222.34;;;10.52;64.19
15817;BME280;8009;50.070;8.232;2023-03-14T13:13:42;98249.75;;;10.39;66.77
15817;BME280;8009;50.070;8.232;2023-03-14T13:16:17;98242.34;;;10.67;64.33
15817;BME280;8009;50.070;8.232;2023-03-14T13:18:47;98248.75;;;10.92;65.51
15817;BME280;8009;50.070;8.232;2023-03-14T13:21:18;98256.69;;;11.02;64.90
15817;BME280;8009;50.070;8.232;2023-03-14T13:24:03;98258.59;;;11.09;63.63
15817;BME280;8009;50.070;8.232;2023-03-14T13:26:36;98270.13;;;11.19;64.87
15817;BME280;8009;50.070;8.232;2023-03-14T13:29:09;98266.31;;;11.30;62.87
15817;BME280;8009;50.070;8.232;2023-03-14T13:31:47;98274.66;;;11.11;65.32
15817;BME280;8009;50.070;8.232;2023-03-14T13:34:15;98275.50;;;11.54;64.28
15817;BME280;8009;50.070;8.232;2023-03-14T13:36:44;98295.00;;;11.31;61.95
15817;BME280;8009;50.070;8.232;2023-03-14T13:39:17;98307.50;;;11.32;62.97
15817;BME280;8009;50.070;8.232;2023-03-14T13:41:47;98323.91;;;10.79;64.91